Terminal Aerodrome Forecast
Issued by NWS Charleston, WV

Current Version | Previous Version | Text Only | Print | Product List | Glossary Off
Versions: 1 2 3 4 5 6 7 8 9 10 11 12 13 14 15 16 17 18 19 20 21 22 23 24

249
FTUS41 KRLX 170526
TAFEKN
TAF
KEKN 170526Z 1706/1806 01003KT P6SM OVC015
     FM170700 32003KT 4SM BR BKN025
      TEMPO 1709/1713 1SM BR FEW001 SCT025
     FM171400 15003KT P6SM FEW025 BKN150
     FM171900 18004KT P6SM -RA OVC150
     FM180200 24004KT 3SM -RASN OVC008=

USA.gov is the U.S. government's official web portal to all federal, state and local government web resources and services.